Akharnai, Greece
Current Conditions -  °F | °C
As of 3:50 PM on Monday 20 Oct 2014 (Local Time) from LGEL Reporting Station
Clear Clear  
Wind Chill: 75°   Ceiling: Unl
Heat Index: 75°   Visibility: 6mi
Dew Point: 45°   Wind: 12mph
Humidity: 34%   Direction: 320°NW
Pressure: 30.09"   Gusts: NA
Location:  38.08°N, 23.73°E
Report Text: LGEL 201250Z 32010KT CAVOK 24/07 Q1019
Loading
Personal Weather Stations






























Interactive Weather Map
Tropical Storm Tracking
New forecast layout! Learn more

10-Day Weather Forecast

Advertisements
Track Severe Weather on mobile